Altoona Blair County Airport Altoona US
ICAO: KAOO
IATA: AOO
Category: Medium
Scheduled Services: Yes

Elevation: 1503 ft
TransAlt. 18000 ft.

Airport Communications:
ASOS:127.125
CLEVELAND CNTR:121.2
CTAF:123.6
RDO:122.1
RDO:122.2
UNICOM:123

KAOO Zoom In..

Runways:

(A) RW 03 length 5465 ft width 100 ft
---- / hdg 26

(B) RW 12 length 3668 ft width 75 ft
---- / hdg 118

(C) RW 21 length 5465 ft width 100 ft
ILS 111.10 / hdg 206

(D) RW 30 length 3668 ft width 75 ft
---- / hdg 298

Location; KAOO
Day. 21 / Time. 23.53 Zulu
* Altimeter: 30.10
* Temperature: 08° c. 46.4°f.
* Wind from: 210° Speed 08 kn.
Dewpoint: 06° c.
Visibility: 10 Statute Miles.
Clouds: Overcast 2100 ft.

KAOO 212353Z AUTO 21008KT 10SM OVC021 08/06 A3010 RMK AO2 SLP201 T00830061 10100 20072 53006


Wind From 210°
Speed 08 kn.

jpsM music video
CHECK IT OUT

jpsM - It Moves..

 
jpsmedia.com for Web Design  worldairports.se 2018   terms of use